createdAt,value
2023-03-06T00:02:19.874Z,37.25
2023-03-06T00:04:47.154Z,34.60
2023-03-06T00:07:13.905Z,33.50
2023-03-06T00:09:40.568Z,38.00
2023-03-06T00:12:07.520Z,33.85
2023-03-06T00:14:34.114Z,38.58
2023-03-06T00:17:00.754Z,34.75
2023-03-06T00:19:27.696Z,37.80
2023-03-06T00:21:54.866Z,35.30
2023-03-06T00:24:21.565Z,37.58
2023-03-06T00:26:48.141Z,38.20
2023-03-06T00:29:14.865Z,36.35
2023-03-06T00:31:44.804Z,39.50
2023-03-06T00:34:11.591Z,38.17
2023-03-06T00:36:38.220Z,36.78
2023-03-06T00:39:05.155Z,39.35
2023-03-06T00:41:31.674Z,33.30
2023-03-06T00:43:58.231Z,37.67
2023-03-06T00:46:24.819Z,38.15
2023-03-06T00:48:51.316Z,36.33
2023-03-06T00:51:19.762Z,41.35
2023-03-06T00:53:46.374Z,39.17
2023-03-06T00:56:13.007Z,38.22
2023-03-06T00:58:39.659Z,35.55
2023-03-06T01:01:06.297Z,37.20
2023-03-06T01:03:32.910Z,37.97
2023-03-06T01:05:59.504Z,34.67
2023-03-06T01:08:26.252Z,37.92
2023-03-06T01:10:52.790Z,38.28
2023-03-06T01:13:19.476Z,35.95
2023-03-06T01:15:46.104Z,35.95
2023-03-06T01:18:12.717Z,37.78
2023-03-06T01:20:39.298Z,32.85
2023-03-06T01:23:05.969Z,39.13
2023-03-06T01:25:32.563Z,34.50
2023-03-06T01:27:59.144Z,33.47
2023-03-06T01:30:25.748Z,39.90
2023-03-06T01:32:52.274Z,33.80
2023-03-06T01:35:18.942Z,34.30
2023-03-06T01:37:45.716Z,33.80
2023-03-06T01:40:13.039Z,33.72
2023-03-06T01:42:39.899Z,32.85
2023-03-06T01:45:28.606Z,30.80
2023-03-06T01:47:55.296Z,29.52
2023-03-06T01:50:22.082Z,33.15
2023-03-06T01:52:52.940Z,31.08
2023-03-06T01:55:27.753Z,32.15
2023-03-06T01:57:57.917Z,38.55
2023-03-06T02:03:19.234Z,37.30
2023-03-06T02:05:46.427Z,34.90
2023-03-06T02:08:16.334Z,36.42
2023-03-06T02:11:14.391Z,31.90
2023-03-06T02:13:42.222Z,32.55
2023-03-06T02:16:09.888Z,30.10
2023-03-06T02:18:37.881Z,32.35
2023-03-06T02:21:08.310Z,33.83
2023-03-06T02:23:56.036Z,35.30
2023-03-06T02:26:23.723Z,27.10
2023-03-06T02:28:50.226Z,30.30
2023-03-06T02:31:24.099Z,32.00
2023-03-06T02:34:15.715Z,34.90
2023-03-06T02:36:47.460Z,28.83
2023-03-06T02:39:15.635Z,31.75
2023-03-06T02:41:42.162Z,32.00
2023-03-06T02:44:08.791Z,30.52
2023-03-06T02:46:35.533Z,30.10
2023-03-06T02:49:02.294Z,32.10
2023-03-06T02:51:28.932Z,34.13
2023-03-06T02:53:55.427Z,30.45
2023-03-06T02:56:22.534Z,32.00
2023-03-06T02:58:49.144Z,29.67
2023-03-06T03:01:16.007Z,32.90
2023-03-06T03:03:42.767Z,30.05
2023-03-06T03:06:09.515Z,33.03
2023-03-06T03:08:36.588Z,28.25
2023-03-06T03:11:03.365Z,36.58
2023-03-06T03:13:30.102Z,31.52
2023-03-06T03:16:06.214Z,32.10
2023-03-06T03:18:33.635Z,26.60
2023-03-06T03:21:00.273Z,28.33
2023-03-06T03:23:27.293Z,32.88
2023-03-06T03:25:53.945Z,31.90
2023-03-06T03:28:20.507Z,32.13
2023-03-06T03:30:47.249Z,29.05
2023-03-06T03:33:13.911Z,28.92
2023-03-06T03:35:40.489Z,30.33
2023-03-06T03:38:07.104Z,27.63
2023-03-06T03:40:33.749Z,26.95
2023-03-06T03:43:00.269Z,25.65
2023-03-06T03:45:26.941Z,27.40
2023-03-06T03:47:53.576Z,29.25
2023-03-06T03:50:20.292Z,30.80
2023-03-06T03:52:47.061Z,27.33
2023-03-06T03:55:13.820Z,27.73
2023-03-06T03:57:40.358Z,27.38
2023-03-06T04:00:08.136Z,27.52
2023-03-06T04:02:34.748Z,25.70
2023-03-06T04:05:01.420Z,27.75
2023-03-06T04:07:28.019Z,32.10
2023-03-06T04:09:54.672Z,27.20
2023-03-06T04:12:21.201Z,27.90
2023-03-06T04:14:47.806Z,26.08
2023-03-06T04:17:14.425Z,28.40
2023-03-06T04:19:40.929Z,25.38
2023-03-06T04:22:07.571Z,27.48
2023-03-06T04:24:34.209Z,28.20
2023-03-06T04:27:00.916Z,29.33
2023-03-06T04:29:27.477Z,27.38
2023-03-06T04:31:54.107Z,27.92
2023-03-06T04:34:20.644Z,29.58
2023-03-06T04:36:47.308Z,31.90
2023-03-06T04:39:14.531Z,29.25
2023-03-06T04:41:42.086Z,27.27
2023-03-06T04:44:09.055Z,26.70
2023-03-06T04:46:36.293Z,30.05
2023-03-06T04:49:02.923Z,28.17
2023-03-06T04:51:29.688Z,31.50
2023-03-06T04:53:56.401Z,28.08
2023-03-06T04:56:23.328Z,27.83
2023-03-06T04:58:50.035Z,23.67
2023-03-06T05:01:16.752Z,28.52
2023-03-06T05:03:43.311Z,25.13
2023-03-06T05:06:10.330Z,28.58
2023-03-06T05:08:37.086Z,27.75
2023-03-06T05:11:03.701Z,24.45
2023-03-06T05:13:30.333Z,25.58
2023-03-06T05:16:02.576Z,26.92
2023-03-06T05:18:29.101Z,30.52
2023-03-06T05:20:59.488Z,27.65
2023-03-06T05:23:27.619Z,28.00
2023-03-06T05:25:54.236Z,25.25
2023-03-06T05:28:21.395Z,28.83
2023-03-06T05:30:48.154Z,27.63
2023-03-06T05:33:15.106Z,25.40
2023-03-06T05:35:47.225Z,25.13
2023-03-06T05:38:15.409Z,27.33
2023-03-06T05:40:43.953Z,21.25
2023-03-06T05:43:11.938Z,27.13
2023-03-06T05:45:39.450Z,24.08
2023-03-06T05:48:06.438Z,26.23
2023-03-06T05:50:33.206Z,23.27
2023-03-06T05:52:59.996Z,26.90
2023-03-06T05:55:26.614Z,29.60
2023-03-06T05:57:54.004Z,25.15
2023-03-06T06:00:21.369Z,25.38
2023-03-06T06:02:47.989Z,27.58
2023-03-06T06:05:14.717Z,25.65
2023-03-06T06:07:41.805Z,24.73
2023-03-06T06:10:09.052Z,24.90
2023-03-06T06:12:35.556Z,23.08
2023-03-06T06:15:02.218Z,24.38
2023-03-06T06:17:28.851Z,23.80
2023-03-06T06:19:55.377Z,23.13
2023-03-06T06:22:21.949Z,28.65
2023-03-06T06:24:48.490Z,27.58
2023-03-06T06:27:15.036Z,26.63
2023-03-06T06:29:41.668Z,26.70
2023-03-06T06:32:08.308Z,24.95
2023-03-06T06:34:34.900Z,27.40
2023-03-06T06:37:01.577Z,25.73
2023-03-06T06:39:29.037Z,27.38
2023-03-06T06:42:09.978Z,28.17
2023-03-06T06:44:42.284Z,26.30
2023-03-06T06:47:22.302Z,25.30
2023-03-06T06:49:53.557Z,26.25
2023-03-06T06:52:20.517Z,27.33
2023-03-06T06:54:47.233Z,23.67
2023-03-06T06:57:13.969Z,29.23
2023-03-06T06:59:40.508Z,23.17
2023-03-06T07:02:07.257Z,25.77
2023-03-06T07:04:33.982Z,26.92
2023-03-06T07:07:01.189Z,35.80
2023-03-06T07:09:28.092Z,25.65
2023-03-06T07:11:54.770Z,32.83
2023-03-06T07:14:21.280Z,27.77
2023-03-06T07:16:47.785Z,32.33
2023-03-06T07:19:14.448Z,26.30
2023-03-06T07:21:41.249Z,26.75
2023-03-06T07:24:07.972Z,29.63
2023-03-06T07:26:35.063Z,23.13
2023-03-06T07:29:02.607Z,25.60
2023-03-06T07:31:29.256Z,27.58
2023-03-06T07:33:56.643Z,29.27
2023-03-06T07:36:24.060Z,29.60
2023-03-06T07:38:50.700Z,30.20
2023-03-06T07:41:21.841Z,26.58
2023-03-06T07:43:49.416Z,22.63
2023-03-06T07:46:16.003Z,24.33
2023-03-06T07:48:43.036Z,24.38
2023-03-06T07:51:15.574Z,22.00
2023-03-06T07:53:42.517Z,20.77
2023-03-06T07:56:09.472Z,23.90
2023-03-06T07:58:41.589Z,25.17
2023-03-06T08:01:11.449Z,23.98
2023-03-06T08:03:38.231Z,29.45
2023-03-06T08:06:15.834Z,24.13
2023-03-06T08:11:11.837Z,20.98
2023-03-06T08:13:39.122Z,26.92
2023-03-06T08:16:06.568Z,25.15
2023-03-06T08:18:33.516Z,24.08
2023-03-06T08:21:08.414Z,24.83
2023-03-06T08:23:35.463Z,22.63
2023-03-06T08:26:05.556Z,22.65
2023-03-06T08:28:32.455Z,24.13
2023-03-06T08:30:59.195Z,21.48
2023-03-06T08:33:25.718Z,27.67
2023-03-06T08:35:52.939Z,19.67
2023-03-06T08:38:19.544Z,23.45
2023-03-06T08:40:46.111Z,23.73
2023-03-06T08:43:14.234Z,22.10
2023-03-06T08:45:41.066Z,22.63
2023-03-06T08:48:07.663Z,20.83
2023-03-06T08:50:34.491Z,22.73
2023-03-06T08:53:01.055Z,24.65
2023-03-06T08:55:28.268Z,21.40
2023-03-06T08:57:55.064Z,20.85
2023-03-06T09:00:21.730Z,22.65
2023-03-06T09:02:48.239Z,20.98
2023-03-06T09:05:15.028Z,19.02
2023-03-06T09:07:41.537Z,17.55
2023-03-06T09:10:12.742Z,18.35
2023-03-06T09:15:18.121Z,19.17
2023-03-06T09:17:44.936Z,24.65
2023-03-06T09:20:12.300Z,21.05
2023-03-06T09:22:39.199Z,18.75
2023-03-06T09:25:06.672Z,19.23
2023-03-06T09:27:33.249Z,18.40
2023-03-06T09:29:59.772Z,22.08
2023-03-06T09:32:26.685Z,24.95
2023-03-06T09:34:53.190Z,21.20
2023-03-06T09:37:19.753Z,20.38
2023-03-06T09:39:46.402Z,21.90
2023-03-06T09:42:19.334Z,18.52
2023-03-06T09:44:56.872Z,18.38
2023-03-06T09:47:44.847Z,16.20
2023-03-06T09:50:42.355Z,19.55
2023-03-06T09:53:47.554Z,17.35
2023-03-06T09:56:31.191Z,16.00
2023-03-06T10:02:00.495Z,22.00
2023-03-06T10:04:41.569Z,19.58
2023-03-06T10:07:15.728Z,18.58
2023-03-06T10:09:48.160Z,19.73
2023-03-06T10:12:25.935Z,23.95
2023-03-06T10:15:01.988Z,19.83
2023-03-06T10:17:35.581Z,18.13
2023-03-06T10:20:11.140Z,19.38
2023-03-06T10:23:01.009Z,20.73
2023-03-06T10:25:37.998Z,26.92
2023-03-06T10:28:22.091Z,22.73
2023-03-06T10:30:58.742Z,22.27
2023-03-06T10:33:47.242Z,21.13
2023-03-06T10:36:19.976Z,23.50
2023-03-06T10:38:50.158Z,23.58
2023-03-06T10:41:23.900Z,30.40
2023-03-06T10:44:05.747Z,28.10
2023-03-06T10:46:37.741Z,26.98
2023-03-06T10:49:19.791Z,33.08
2023-03-06T10:52:03.340Z,29.58
2023-03-06T10:56:58.180Z,30.05
2023-03-06T10:59:28.441Z,25.10
2023-03-06T11:02:19.678Z,29.98
2023-03-06T11:04:51.364Z,28.38
2023-03-06T11:07:23.030Z,29.65
2023-03-06T11:09:58.731Z,31.25
2023-03-06T11:12:28.670Z,28.60
2023-03-06T11:15:10.182Z,30.90
2023-03-06T11:17:52.024Z,28.85
2023-03-06T11:20:38.424Z,27.27
2023-03-06T11:23:18.414Z,30.67
2023-03-06T11:25:48.888Z,27.63
2023-03-06T11:28:23.848Z,24.42
2023-03-06T11:30:56.337Z,25.90
2023-03-06T11:33:34.193Z,28.30
2023-03-06T11:36:26.064Z,23.85
2023-03-06T11:38:54.200Z,25.98
2023-03-06T11:41:43.837Z,26.90
2023-03-06T11:44:35.215Z,25.73
2023-03-06T11:47:25.970Z,24.40
2023-03-06T11:50:10.276Z,29.83
2023-03-06T11:52:47.582Z,29.25
2023-03-06T11:55:20.901Z,26.02
2023-03-06T11:57:57.089Z,24.35
2023-03-06T12:00:46.073Z,24.67
2023-03-06T12:03:54.731Z,27.20
2023-03-06T12:06:53.372Z,24.35
2023-03-06T12:09:37.728Z,21.92
2023-03-06T12:12:20.604Z,22.25
2023-03-06T12:15:24.056Z,24.10
2023-03-06T12:18:05.621Z,22.73
2023-03-06T12:20:55.360Z,20.23
2023-03-06T12:26:23.029Z,21.08
2023-03-06T12:28:51.547Z,19.58
2023-03-06T12:31:31.260Z,20.75
2023-03-06T12:34:16.917Z,24.63
2023-03-06T12:37:09.656Z,20.20
2023-03-06T12:39:58.157Z,21.58
2023-03-06T12:43:12.135Z,18.08
2023-03-06T12:45:39.231Z,19.95
2023-03-06T12:48:18.124Z,23.45
2023-03-06T12:50:45.658Z,17.80
2023-03-06T12:53:34.020Z,20.75
2023-03-06T12:56:02.806Z,19.05
2023-03-06T12:58:29.532Z,23.83
2023-03-06T13:01:27.226Z,19.15
2023-03-06T13:04:07.335Z,18.00
2023-03-06T13:07:04.440Z,16.63
2023-03-06T13:09:33.576Z,18.05
2023-03-06T13:12:24.925Z,18.80
2023-03-06T13:15:18.901Z,17.23
2023-03-06T13:17:45.905Z,20.67
2023-03-06T13:20:15.277Z,16.15
2023-03-06T13:22:46.992Z,18.27
2023-03-06T13:25:16.806Z,16.65
2023-03-06T13:27:52.982Z,21.10
2023-03-06T13:30:28.453Z,19.30
2023-03-06T13:32:56.385Z,19.05
2023-03-06T13:35:52.754Z,20.25
2023-03-06T13:38:41.134Z,17.70
2023-03-06T13:41:22.810Z,20.55
2023-03-06T13:43:55.328Z,18.20
2023-03-06T13:46:26.902Z,17.27
2023-03-06T13:49:08.670Z,17.23
2023-03-06T13:51:36.352Z,16.77
2023-03-06T13:54:09.191Z,18.55
2023-03-06T13:56:57.561Z,17.80
2023-03-06T13:59:42.480Z,14.10
2023-03-06T14:02:43.800Z,13.77
2023-03-06T14:05:12.603Z,16.73
2023-03-06T14:07:44.103Z,19.15
2023-03-06T14:10:13.318Z,16.48
2023-03-06T14:12:48.723Z,17.33
2023-03-06T14:15:20.935Z,15.23
2023-03-06T14:18:01.657Z,17.45
2023-03-06T14:20:42.353Z,19.15
2023-03-06T14:23:30.516Z,16.52
2023-03-06T14:26:18.749Z,13.95
2023-03-06T14:28:53.559Z,14.70
2023-03-06T14:31:22.892Z,18.38
2023-03-06T14:33:56.597Z,15.13
2023-03-06T14:36:31.694Z,15.50
2023-03-06T14:39:04.311Z,14.55
2023-03-06T14:41:34.455Z,18.02
2023-03-06T14:44:26.515Z,14.93
2023-03-06T14:46:55.274Z,15.07
2023-03-06T14:49:24.556Z,17.70
2023-03-06T14:51:53.669Z,17.00
2023-03-06T14:54:24.821Z,15.98
2023-03-06T14:57:01.584Z,13.68
2023-03-06T14:59:30.952Z,18.40
2023-03-06T15:02:01.043Z,16.25
2023-03-06T15:04:45.103Z,18.05
2023-03-06T15:07:16.102Z,14.90
2023-03-06T15:09:47.618Z,14.45
2023-03-06T15:12:20.329Z,18.05
2023-03-06T15:14:58.898Z,16.08
2023-03-06T15:17:32.033Z,19.48
2023-03-06T15:20:00.388Z,16.75
2023-03-06T15:22:42.493Z,19.20
2023-03-06T15:25:30.247Z,20.30
2023-03-06T15:28:20.279Z,17.13
2023-03-06T15:31:03.396Z,16.55
2023-03-06T15:33:30.294Z,19.00
2023-03-06T15:36:02.024Z,16.67
2023-03-06T15:38:44.021Z,18.00
2023-03-06T15:41:41.820Z,16.23
2023-03-06T15:44:18.503Z,19.65
2023-03-06T15:46:45.133Z,19.80
2023-03-06T15:49:17.182Z,19.52
2023-03-06T15:51:43.974Z,17.35
2023-03-06T15:54:12.513Z,18.08
2023-03-06T15:56:41.986Z,16.65
2023-03-06T15:59:26.329Z,20.83
2023-03-06T16:01:54.025Z,20.15
2023-03-06T16:04:20.658Z,20.00
2023-03-06T16:06:47.341Z,18.90
2023-03-06T16:09:14.499Z,20.33
2023-03-06T16:11:44.849Z,17.38
2023-03-06T16:14:18.941Z,20.45
2023-03-06T16:16:45.742Z,16.92
2023-03-06T16:19:25.888Z,18.85
2023-03-06T16:21:53.404Z,18.80
2023-03-06T16:24:20.042Z,16.88
2023-03-06T16:26:51.153Z,19.02
2023-03-06T16:29:20.512Z,25.50
2023-03-06T16:31:47.587Z,21.02
2023-03-06T16:34:14.608Z,19.40
2023-03-06T16:36:41.774Z,21.98
2023-03-06T16:39:14.718Z,18.08
2023-03-06T16:41:41.325Z,18.42
2023-03-06T16:44:10.234Z,14.68
2023-03-06T16:46:42.624Z,13.02
2023-03-06T16:49:16.275Z,15.82
2023-03-06T16:51:43.179Z,16.15
2023-03-06T16:54:09.717Z,15.95
2023-03-06T16:56:36.370Z,17.52
2023-03-06T16:59:02.962Z,13.73
2023-03-06T17:01:29.512Z,16.23
2023-03-06T17:03:56.243Z,14.93
2023-03-06T17:06:23.394Z,14.98
2023-03-06T17:08:50.535Z,15.23
2023-03-06T17:11:20.332Z,12.88
2023-03-06T17:13:47.669Z,16.73
2023-03-06T17:16:16.526Z,15.95
2023-03-06T17:18:45.185Z,15.60
2023-03-06T17:21:15.620Z,17.58
2023-03-06T17:23:42.495Z,14.82
2023-03-06T17:26:13.240Z,14.13
2023-03-06T17:28:40.269Z,12.50
2023-03-06T17:31:21.350Z,14.93
2023-03-06T17:33:48.665Z,13.93
2023-03-06T17:36:17.294Z,15.52
2023-03-06T17:38:43.890Z,16.00
2023-03-06T17:41:12.284Z,15.93
2023-03-06T17:43:39.409Z,15.85
2023-03-06T17:46:08.110Z,14.38
2023-03-06T17:48:35.961Z,13.18
2023-03-06T17:51:03.431Z,18.38
2023-03-06T17:53:30.092Z,13.88
2023-03-06T17:55:59.664Z,13.20
2023-03-06T17:58:27.551Z,13.85
2023-03-06T18:00:54.393Z,12.82
2023-03-06T18:03:21.224Z,13.50
2023-03-06T18:05:48.031Z,15.07
2023-03-06T18:08:14.690Z,13.57
2023-03-06T18:10:43.435Z,14.48
2023-03-06T18:13:10.487Z,13.63
2023-03-06T18:15:40.931Z,16.85
2023-03-06T18:18:08.843Z,14.48
2023-03-06T18:20:41.171Z,14.90
2023-03-06T18:23:07.775Z,14.10
2023-03-06T18:25:34.624Z,12.75
2023-03-06T18:28:01.317Z,14.05
2023-03-06T18:30:27.998Z,13.20
2023-03-06T18:32:54.810Z,12.35
2023-03-06T18:35:21.722Z,13.02
2023-03-06T18:37:48.419Z,13.88
2023-03-06T18:40:15.142Z,13.40
2023-03-06T18:42:42.000Z,14.25
2023-03-06T18:45:09.462Z,15.77
2023-03-06T18:47:36.225Z,13.60
2023-03-06T18:50:03.241Z,14.73
2023-03-06T18:52:29.828Z,12.23
2023-03-06T18:54:56.391Z,13.68
2023-03-06T18:57:22.990Z,14.00
2023-03-06T18:59:49.559Z,13.48
2023-03-06T19:02:16.060Z,13.27
2023-03-06T19:04:42.905Z,15.93
2023-03-06T19:07:09.484Z,14.00
2023-03-06T19:09:36.001Z,14.70
2023-03-06T19:12:03.585Z,12.32
2023-03-06T19:14:30.670Z,12.38
2023-03-06T19:16:57.288Z,14.75
2023-03-06T19:19:26.965Z,15.02
2023-03-06T19:21:53.834Z,13.43
2023-03-06T19:24:20.412Z,13.93
2023-03-06T19:26:47.116Z,14.88
2023-03-06T19:29:13.774Z,12.85
2023-03-06T19:31:40.573Z,13.27
2023-03-06T19:34:07.216Z,16.25
2023-03-06T19:36:34.500Z,14.10
2023-03-06T19:39:03.676Z,13.38
2023-03-06T19:41:30.652Z,16.60
2023-03-06T19:43:59.639Z,10.93
2023-03-06T19:46:27.264Z,14.23
2023-03-06T19:48:58.964Z,13.38
2023-03-06T19:51:26.448Z,12.73
2023-03-06T19:53:53.257Z,11.88
2023-03-06T19:56:23.249Z,17.67
2023-03-06T19:58:49.844Z,14.95
2023-03-06T20:01:19.410Z,17.20
2023-03-06T20:03:46.263Z,14.95
2023-03-06T20:06:18.616Z,14.15
2023-03-06T20:08:46.556Z,16.58
2023-03-06T20:11:22.049Z,17.38
2023-03-06T20:13:48.981Z,16.27
2023-03-06T20:16:17.087Z,13.32
2023-03-06T20:18:43.884Z,12.43
2023-03-06T20:21:10.474Z,14.10
2023-03-06T20:23:37.120Z,14.05
2023-03-06T20:26:09.593Z,12.85
2023-03-06T20:28:37.717Z,13.27
2023-03-06T20:31:16.607Z,14.50
2023-03-06T20:33:44.404Z,13.27
2023-03-06T20:36:18.938Z,16.98
2023-03-06T20:38:45.800Z,16.20
2023-03-06T20:41:16.905Z,19.50
2023-03-06T20:43:43.947Z,17.38
2023-03-06T20:46:12.059Z,19.50
2023-03-06T20:48:39.065Z,21.50
2023-03-06T20:51:17.397Z,20.00
2023-03-06T20:53:44.095Z,17.02
2023-03-06T20:56:17.308Z,16.10
2023-03-06T20:58:44.563Z,15.35
2023-03-06T21:01:21.567Z,17.73
2023-03-06T21:03:49.314Z,19.08
2023-03-06T21:06:16.649Z,22.60
2023-03-06T21:08:43.473Z,20.95
2023-03-06T21:11:10.113Z,20.17
2023-03-06T21:13:36.627Z,18.40
2023-03-06T21:16:08.867Z,14.90
2023-03-06T21:18:35.805Z,15.68
2023-03-06T21:21:06.888Z,16.98
2023-03-06T21:23:33.606Z,19.20
2023-03-06T21:26:00.172Z,16.98
2023-03-06T21:28:27.459Z,17.35
2023-03-06T21:30:54.096Z,18.75
2023-03-06T21:33:20.925Z,16.73
2023-03-06T21:35:47.610Z,19.55
2023-03-06T21:38:14.502Z,17.48
2023-03-06T21:40:41.154Z,20.70
2023-03-06T21:43:09.083Z,19.10
2023-03-06T21:45:35.818Z,17.55
2023-03-06T21:48:02.569Z,19.35
2023-03-06T21:50:29.482Z,15.27
2023-03-06T21:52:56.635Z,17.17
2023-03-06T21:55:23.247Z,17.67
2023-03-06T21:57:53.914Z,18.10
2023-03-06T22:00:23.309Z,18.10
2023-03-06T22:02:50.485Z,17.67
2023-03-06T22:05:17.057Z,14.13
2023-03-06T22:07:43.661Z,15.68
2023-03-06T22:10:12.719Z,16.08
2023-03-06T22:12:39.669Z,16.58
2023-03-06T22:15:07.115Z,16.30
2023-03-06T22:17:33.735Z,16.15
2023-03-06T22:20:00.256Z,17.42
2023-03-06T22:22:26.995Z,17.60
2023-03-06T22:24:53.588Z,20.65
2023-03-06T22:27:20.085Z,20.52
2023-03-06T22:29:46.812Z,18.40
2023-03-06T22:32:13.574Z,21.48
2023-03-06T22:34:40.186Z,22.52
2023-03-06T22:37:06.766Z,20.50
2023-03-06T22:39:33.398Z,23.30
2023-03-06T22:41:59.886Z,21.27
2023-03-06T22:44:26.515Z,22.15
2023-03-06T22:46:53.651Z,21.30
2023-03-06T22:49:20.267Z,21.40
2023-03-06T22:51:46.885Z,17.55
2023-03-06T22:54:13.544Z,19.27
2023-03-06T22:56:40.034Z,18.15
2023-03-06T22:59:06.662Z,17.55
2023-03-06T23:01:34.972Z,18.27
2023-03-06T23:04:03.881Z,18.25
2023-03-06T23:06:36.156Z,17.77
2023-03-06T23:09:06.532Z,18.73
2023-03-06T23:11:34.320Z,17.63
2023-03-06T23:14:01.612Z,19.23
2023-03-06T23:16:28.251Z,17.10
2023-03-06T23:18:54.932Z,20.63
2023-03-06T23:21:22.735Z,21.45
2023-03-06T23:23:51.411Z,18.58
2023-03-06T23:26:19.926Z,23.40
2023-03-06T23:28:46.793Z,18.60
2023-03-06T23:31:15.801Z,20.98
2023-03-06T23:33:42.662Z,22.08
2023-03-06T23:36:12.060Z,20.05
2023-03-06T23:38:39.050Z,21.48
2023-03-06T23:41:08.359Z,21.10
2023-03-06T23:43:35.309Z,20.17
2023-03-06T23:46:02.239Z,21.08
2023-03-06T23:48:29.678Z,25.15
2023-03-06T23:50:56.807Z,21.38
2023-03-06T23:53:23.750Z,21.05
2023-03-06T23:55:51.053Z,20.48
2023-03-06T23:58:19.070Z,22.95
